createdAt,value
2019-02-28T00:00:26.781Z,86.69
2019-02-28T00:01:26.784Z,85.81
2019-02-28T00:02:26.769Z,85.91
2019-02-28T00:03:27.301Z,85.60
2019-02-28T00:04:32.129Z,85.96
2019-02-28T00:05:27.723Z,85.74
2019-02-28T00:06:26.793Z,85.64
2019-02-28T00:07:26.693Z,86.47
2019-02-28T00:08:26.774Z,86.37
2019-02-28T00:09:26.664Z,86.47
2019-02-28T00:10:28.183Z,86.37
2019-02-28T00:11:26.655Z,86.90
2019-02-28T00:12:26.745Z,87.00
2019-02-28T00:13:26.616Z,86.58
2019-02-28T00:14:27.736Z,86.58
2019-02-28T00:15:29.679Z,86.79
2019-02-28T00:16:26.597Z,86.90
2019-02-28T00:17:26.577Z,87.00
2019-02-28T00:18:26.668Z,86.37
2019-02-28T00:19:26.548Z,86.27
2019-02-28T00:20:29.159Z,86.37
2019-02-28T00:21:27.536Z,86.37
2019-02-28T00:22:26.629Z,86.62
2019-02-28T00:23:26.510Z,86.27
2019-02-28T00:24:27.194Z,85.96
2019-02-28T00:25:26.483Z,86.20
2019-02-28T00:26:28.603Z,86.72
2019-02-28T00:27:26.461Z,86.83
2019-02-28T00:28:26.632Z,86.72
2019-02-28T00:29:26.442Z,86.72
2019-02-28T00:30:26.483Z,86.93
2019-02-28T00:31:26.424Z,86.62
2019-02-28T00:32:26.403Z,86.72
2019-02-28T00:33:26.373Z,86.93
2019-02-28T00:34:33.195Z,86.41
2019-02-28T00:35:26.375Z,86.41
2019-02-28T00:36:26.425Z,86.45
2019-02-28T00:37:27.375Z,87.04
2019-02-28T00:38:29.489Z,86.83
2019-02-28T00:39:26.387Z,86.87
2019-02-28T00:40:26.316Z,86.72
2019-02-28T00:41:26.357Z,86.77
2019-02-28T00:42:26.297Z,87.08
2019-02-28T00:43:27.379Z,87.08
2019-02-28T00:44:30.452Z,87.39
2019-02-28T00:45:26.288Z,87.50
2019-02-28T00:46:26.269Z,87.15
2019-02-28T00:47:26.329Z,87.50
2019-02-28T00:48:26.232Z,87.81
2019-02-28T00:49:26.260Z,87.92
2019-02-28T00:50:27.609Z,87.50
2019-02-28T00:51:26.242Z,87.29
2019-02-28T00:52:26.171Z,87.60
2019-02-28T00:53:26.161Z,87.50
2019-02-28T00:54:26.152Z,87.92
2019-02-28T00:55:26.172Z,87.81
2019-02-28T00:56:26.140Z,87.81
2019-02-28T00:57:27.223Z,87.81
2019-02-28T00:58:28.680Z,87.92
2019-02-28T00:59:26.144Z,87.39
2019-02-28T01:00:26.084Z,87.39
2019-02-28T01:01:26.115Z,86.87
2019-02-28T01:02:26.056Z,86.77
2019-02-28T01:03:27.450Z,87.29
2019-02-28T01:04:26.036Z,87.81
2019-02-28T01:05:26.047Z,87.71
2019-02-28T01:06:26.027Z,87.71
2019-02-28T01:07:26.077Z,87.81
2019-02-28T01:08:25.988Z,87.92
2019-02-28T01:09:27.084Z,87.92
2019-02-28T01:10:25.989Z,87.92
2019-02-28T01:11:25.970Z,87.50
2019-02-28T01:12:27.039Z,87.08
2019-02-28T01:13:28.081Z,87.50
2019-02-28T01:14:25.920Z,87.29
2019-02-28T01:15:25.910Z,87.81
2019-02-28T01:16:25.930Z,87.50
2019-02-28T01:17:26.727Z,87.71
2019-02-28T01:18:25.932Z,87.60
2019-02-28T01:19:25.865Z,87.39
2019-02-28T01:20:25.972Z,87.29
2019-02-28T01:21:25.863Z,86.93
2019-02-28T01:22:26.843Z,86.83
2019-02-28T01:23:25.828Z,86.93
2019-02-28T01:24:25.846Z,87.18
2019-02-28T01:25:27.854Z,86.62
2019-02-28T01:26:25.807Z,86.62
2019-02-28T01:27:25.846Z,86.66
2019-02-28T01:28:27.064Z,86.66
2019-02-28T01:29:25.776Z,86.93
2019-02-28T01:30:25.846Z,86.83
2019-02-28T01:31:25.737Z,86.87
2019-02-28T01:32:25.787Z,86.87
2019-02-28T01:33:25.743Z,87.08
2019-02-28T01:34:25.720Z,86.87
2019-02-28T01:35:25.679Z,87.29
2019-02-28T01:36:25.799Z,86.98
2019-02-28T01:37:25.659Z,87.08
2019-02-28T01:38:25.691Z,86.87
2019-02-28T01:39:25.631Z,86.98
2019-02-28T01:40:25.731Z,87.29
2019-02-28T01:41:25.621Z,87.39
2019-02-28T01:42:25.664Z,87.39
2019-02-28T01:43:28.884Z,87.71
2019-02-28T01:44:25.613Z,87.60
2019-02-28T01:45:25.563Z,87.39
2019-02-28T01:46:25.602Z,87.39
2019-02-28T01:47:25.543Z,87.08
2019-02-28T01:48:25.566Z,86.98
2019-02-28T01:49:26.866Z,87.39
2019-02-28T01:50:25.604Z,87.92
2019-02-28T01:51:25.495Z,87.92
2019-02-28T01:52:25.587Z,87.81
2019-02-28T01:53:25.475Z,87.50
2019-02-28T01:54:27.787Z,87.08
2019-02-28T01:55:25.447Z,86.87
2019-02-28T01:56:25.448Z,87.64
2019-02-28T01:57:25.437Z,87.71
2019-02-28T01:58:32.308Z,87.71
2019-02-28T01:59:25.419Z,88.86
2019-02-28T02:00:26.408Z,88.44
2019-02-28T02:01:25.389Z,88.65
2019-02-28T02:02:27.419Z,88.75
2019-02-28T02:03:25.369Z,88.54
2019-02-28T02:04:26.380Z,88.86
2019-02-28T02:05:25.340Z,88.75
2019-02-28T02:06:25.764Z,87.18
2019-02-28T02:07:25.348Z,87.50
2019-02-28T02:08:26.351Z,87.50
2019-02-28T02:09:25.302Z,87.18
2019-02-28T02:10:25.362Z,87.71
2019-02-28T02:11:26.684Z,88.44
2019-02-28T02:12:25.263Z,88.44
2019-02-28T02:13:25.233Z,88.44
2019-02-28T02:14:25.368Z,88.12
2019-02-28T02:15:25.223Z,88.12
2019-02-28T02:16:27.720Z,88.96
2019-02-28T02:17:25.224Z,88.54
2019-02-28T02:18:25.185Z,88.65
2019-02-28T02:19:25.275Z,88.44
2019-02-28T02:20:26.321Z,88.54
2019-02-28T02:21:26.236Z,88.44
2019-02-28T02:22:25.157Z,88.27
2019-02-28T02:23:25.129Z,88.86
2019-02-28T02:24:27.860Z,88.23
2019-02-28T02:25:25.108Z,88.27
2019-02-28T02:26:25.148Z,88.90
2019-02-28T02:27:25.098Z,88.44
2019-02-28T02:28:27.071Z,88.86
2019-02-28T02:29:25.060Z,88.02
2019-02-28T02:30:25.122Z,87.92
2019-02-28T02:31:28.884Z,88.54
2019-02-28T02:32:25.102Z,88.54
2019-02-28T02:33:25.011Z,88.54
2019-02-28T02:34:28.173Z,88.54
2019-02-28T02:35:24.993Z,89.07
2019-02-28T02:36:25.025Z,87.81
2019-02-28T02:37:26.340Z,87.71
2019-02-28T02:38:27.014Z,87.60
2019-02-28T02:39:24.955Z,87.71
2019-02-28T02:40:25.026Z,87.81
2019-02-28T02:41:24.936Z,87.81
2019-02-28T02:42:25.002Z,88.86
2019-02-28T02:43:24.915Z,88.65
2019-02-28T02:44:30.715Z,87.92
2019-02-28T02:45:25.889Z,87.71
2019-02-28T02:46:25.942Z,87.64
2019-02-28T02:47:31.341Z,87.64
2019-02-28T02:48:25.867Z,88.17
2019-02-28T02:49:24.843Z,88.48
2019-02-28T02:50:24.830Z,88.59
2019-02-28T02:51:24.848Z,88.90
2019-02-28T02:52:29.974Z,88.59
2019-02-28T02:53:25.816Z,88.79
2019-02-28T02:54:24.783Z,89.11
2019-02-28T02:55:28.951Z,89.22
2019-02-28T02:56:24.791Z,89.11
2019-02-28T02:57:24.760Z,88.79
2019-02-28T02:58:27.952Z,89.25
2019-02-28T02:59:24.721Z,88.69
2019-02-28T03:00:24.711Z,88.90
2019-02-28T03:01:24.721Z,89.32
2019-02-28T03:02:28.641Z,89.57
2019-02-28T03:03:25.672Z,89.57
2019-02-28T03:04:24.772Z,89.63
2019-02-28T03:05:24.678Z,89.67
2019-02-28T03:06:24.664Z,89.67
2019-02-28T03:07:25.058Z,89.67
2019-02-28T03:08:24.704Z,89.73
2019-02-28T03:09:24.616Z,89.88
2019-02-28T03:10:24.645Z,89.78
2019-02-28T03:11:25.880Z,89.57
2019-02-28T03:12:24.617Z,89.15
2019-02-28T03:13:24.559Z,89.36
2019-02-28T03:14:24.610Z,89.47
2019-02-28T03:15:27.042Z,89.47
2019-02-28T03:16:24.528Z,88.94
2019-02-28T03:17:24.530Z,89.53
2019-02-28T03:18:24.579Z,89.63
2019-02-28T03:19:24.488Z,88.94
2019-02-28T03:20:24.526Z,89.25
2019-02-28T03:21:24.480Z,89.36
2019-02-28T03:22:28.606Z,88.84
2019-02-28T03:23:25.442Z,89.36
2019-02-28T03:24:24.490Z,89.88
2019-02-28T03:25:28.266Z,89.67
2019-02-28T03:26:24.425Z,89.73
2019-02-28T03:27:24.423Z,89.42
2019-02-28T03:28:28.106Z,89.04
2019-02-28T03:29:25.383Z,89.11
2019-02-28T03:30:31.872Z,89.47
2019-02-28T03:31:25.374Z,89.25
2019-02-28T03:32:24.355Z,89.42
2019-02-28T03:33:28.304Z,89.47
2019-02-28T03:34:24.336Z,89.15
2019-02-28T03:35:24.338Z,89.15
2019-02-28T03:36:24.295Z,89.36
2019-02-28T03:37:24.300Z,89.25
2019-02-28T03:38:24.277Z,89.57
2019-02-28T03:39:25.656Z,89.25
2019-02-28T03:40:24.246Z,89.57
2019-02-28T03:41:25.267Z,89.47
2019-02-28T03:42:28.530Z,89.25
2019-02-28T03:43:24.219Z,89.67
2019-02-28T03:44:24.248Z,89.67
2019-02-28T03:45:24.198Z,90.09
2019-02-28T03:46:24.280Z,89.98
2019-02-28T03:47:24.265Z,90.09
2019-02-28T03:48:24.221Z,90.20
2019-02-28T03:49:24.169Z,90.30
2019-02-28T03:50:24.151Z,90.30
2019-02-28T03:51:28.349Z,90.30
2019-02-28T03:52:25.255Z,90.20
2019-02-28T03:53:24.103Z,90.30
2019-02-28T03:54:24.121Z,90.09
2019-02-28T03:55:24.086Z,90.51
2019-02-28T03:56:24.162Z,90.09
2019-02-28T03:57:27.919Z,90.09
2019-02-28T03:58:25.056Z,90.41
2019-02-28T03:59:24.044Z,90.20
2019-02-28T04:00:24.147Z,90.20
2019-02-28T04:01:24.025Z,90.09
2019-02-28T04:02:24.091Z,90.13
2019-02-28T04:03:24.015Z,90.20
2019-02-28T04:04:24.007Z,90.51
2019-02-28T04:05:28.165Z,90.51
2019-02-28T04:06:24.047Z,90.20
2019-02-28T04:07:23.957Z,90.51
2019-02-28T04:08:29.411Z,90.51
2019-02-28T04:09:24.930Z,90.51
2019-02-28T04:10:24.038Z,90.41
2019-02-28T04:11:30.801Z,90.41
2019-02-28T04:12:24.880Z,90.51
2019-02-28T04:13:23.959Z,90.51
2019-02-28T04:14:23.990Z,90.93
2019-02-28T04:15:23.865Z,90.83
2019-02-28T04:16:23.923Z,90.93
2019-02-28T04:17:30.111Z,90.83
2019-02-28T04:18:24.922Z,91.24
2019-02-28T04:19:23.801Z,90.83
2019-02-28T04:20:23.899Z,90.93
2019-02-28T04:21:23.797Z,90.51
2019-02-28T04:22:23.997Z,90.51
2019-02-28T04:23:23.784Z,91.03
2019-02-28T04:24:23.866Z,90.97
2019-02-28T04:25:24.490Z,90.83
2019-02-28T04:26:23.804Z,90.93
2019-02-28T04:27:23.777Z,90.83
2019-02-28T04:28:23.775Z,91.14
2019-02-28T04:29:30.005Z,91.77
2019-02-28T04:30:24.688Z,90.72
2019-02-28T04:31:23.676Z,91.14
2019-02-28T04:32:27.705Z,91.03
2019-02-28T04:33:23.667Z,91.14
2019-02-28T04:34:23.738Z,90.97
2019-02-28T04:35:25.345Z,90.93
2019-02-28T04:36:23.678Z,90.72
2019-02-28T04:37:23.619Z,90.51
2019-02-28T04:38:23.660Z,90.93
2019-02-28T04:39:23.675Z,91.08
2019-02-28T04:40:24.024Z,91.39
2019-02-28T04:41:23.570Z,91.39
2019-02-28T04:42:23.600Z,91.24
2019-02-28T04:43:23.571Z,91.28
2019-02-28T04:44:24.554Z,91.28
2019-02-28T04:45:26.172Z,91.28
2019-02-28T04:46:23.563Z,91.35
2019-02-28T04:47:23.512Z,91.39
2019-02-28T04:48:23.547Z,91.46
2019-02-28T04:49:23.483Z,91.60
2019-02-28T04:50:24.563Z,91.46
2019-02-28T04:51:25.553Z,91.35
2019-02-28T04:52:23.444Z,91.28
2019-02-28T04:53:23.474Z,91.14
2019-02-28T04:54:24.560Z,91.24
2019-02-28T04:55:24.505Z,91.35
2019-02-28T04:56:23.396Z,91.28
2019-02-28T04:57:30.266Z,91.46
2019-02-28T04:58:25.317Z,91.35
2019-02-28T04:59:23.446Z,91.39
2019-02-28T05:00:23.347Z,91.50
2019-02-28T05:01:23.377Z,91.66
2019-02-28T05:02:23.313Z,91.46
2019-02-28T05:03:28.004Z,91.56
2019-02-28T05:04:24.309Z,91.56
2019-02-28T05:05:23.359Z,91.56
2019-02-28T05:06:23.289Z,91.56
2019-02-28T05:07:26.262Z,91.56
2019-02-28T05:08:24.282Z,91.46
2019-02-28T05:09:23.320Z,91.66
2019-02-28T05:10:23.242Z,91.87
2019-02-28T05:11:23.252Z,90.93
2019-02-28T05:12:24.241Z,90.97
2019-02-28T05:13:23.223Z,90.87
2019-02-28T05:14:23.700Z,91.66
2019-02-28T05:15:23.182Z,91.50
2019-02-28T05:16:23.217Z,91.35
2019-02-28T05:17:23.176Z,91.56
2019-02-28T05:18:23.174Z,91.35
2019-02-28T05:19:23.203Z,91.46
2019-02-28T05:20:23.134Z,91.24
2019-02-28T05:21:23.145Z,90.83
2019-02-28T05:22:24.443Z,90.93
2019-02-28T05:23:23.126Z,90.83
2019-02-28T05:24:23.145Z,90.93
2019-02-28T05:25:23.090Z,90.41
2019-02-28T05:26:23.449Z,90.41
2019-02-28T05:27:24.436Z,90.93
2019-02-28T05:28:23.059Z,90.51
2019-02-28T05:29:23.039Z,91.03
2019-02-28T05:30:23.048Z,91.77
2019-02-28T05:31:24.211Z,91.66
2019-02-28T05:32:23.088Z,90.30
2019-02-28T05:33:23.001Z,90.61
2019-02-28T05:34:23.026Z,90.66
2019-02-28T05:35:26.621Z,90.66
2019-02-28T05:36:23.063Z,90.55
2019-02-28T05:37:22.943Z,90.87
2019-02-28T05:38:23.032Z,91.39
2019-02-28T05:39:22.913Z,91.60
2019-02-28T05:40:22.929Z,91.18
2019-02-28T05:41:22.892Z,92.13
2019-02-28T05:42:23.375Z,91.91
2019-02-28T05:43:22.883Z,91.71
2019-02-28T05:44:22.863Z,92.02
2019-02-28T05:45:22.844Z,92.13
2019-02-28T05:46:24.598Z,92.13
2019-02-28T05:47:22.825Z,92.02
2019-02-28T05:48:22.915Z,92.02
2019-02-28T05:49:22.805Z,91.71
2019-02-28T05:50:22.808Z,91.71
2019-02-28T05:51:24.928Z,91.18
2019-02-28T05:52:22.849Z,91.39
2019-02-28T05:53:22.789Z,91.28
2019-02-28T05:54:22.787Z,91.28
2019-02-28T05:55:25.706Z,91.75
2019-02-28T05:56:22.818Z,91.81
2019-02-28T05:57:22.718Z,92.13
2019-02-28T05:58:23.878Z,92.02
2019-02-28T05:59:27.399Z,91.60
2019-02-28T06:00:22.971Z,92.02
2019-02-28T06:01:24.399Z,91.33
2019-02-28T06:02:23.561Z,91.39
2019-02-28T06:03:22.735Z,91.39
2019-02-28T06:04:22.661Z,91.39
2019-02-28T06:05:22.621Z,92.16
2019-02-28T06:06:22.701Z,91.22
2019-02-28T06:07:22.612Z,91.64
2019-02-28T06:08:22.632Z,92.16
2019-02-28T06:09:22.592Z,91.75
2019-02-28T06:10:24.705Z,92.13
2019-02-28T06:11:22.553Z,92.06
2019-02-28T06:12:22.604Z,92.27
2019-02-28T06:13:22.535Z,92.44
2019-02-28T06:14:26.492Z,92.13
2019-02-28T06:15:22.518Z,91.53
2019-02-28T06:16:22.575Z,91.71
2019-02-28T06:17:22.508Z,92.02
2019-02-28T06:18:22.506Z,92.06
2019-02-28T06:19:22.486Z,92.16
2019-02-28T06:20:22.546Z,91.75
2019-02-28T06:21:23.411Z,91.85
2019-02-28T06:22:22.477Z,92.06
2019-02-28T06:23:22.417Z,92.13
2019-02-28T06:24:22.460Z,92.13
2019-02-28T06:25:24.979Z,92.02
2019-02-28T06:26:22.389Z,91.91
2019-02-28T06:27:24.254Z,92.13
2019-02-28T06:28:22.380Z,92.44
2019-02-28T06:29:22.370Z,92.13
2019-02-28T06:30:24.372Z,91.35
2019-02-28T06:31:22.341Z,91.24
2019-02-28T06:32:23.596Z,91.71
2019-02-28T06:33:22.326Z,91.60
2019-02-28T06:34:22.342Z,91.18
2019-02-28T06:35:22.304Z,92.29
2019-02-28T06:36:22.334Z,92.29
2019-02-28T06:37:23.980Z,92.08
2019-02-28T06:38:22.373Z,91.87
2019-02-28T06:39:22.253Z,92.08
2019-02-28T06:40:22.307Z,91.14
2019-02-28T06:41:22.235Z,91.66
2019-02-28T06:42:22.238Z,91.77
2019-02-28T06:43:22.205Z,91.66
2019-02-28T06:44:24.196Z,91.35
2019-02-28T06:45:22.177Z,90.93
2019-02-28T06:46:22.208Z,91.14
2019-02-28T06:47:22.182Z,91.03
2019-02-28T06:48:25.948Z,90.83
2019-02-28T06:49:22.257Z,91.14
2019-02-28T06:50:22.117Z,91.31
2019-02-28T06:51:22.139Z,91.03
2019-02-28T06:52:22.293Z,90.51
2019-02-28T06:53:22.189Z,90.72
2019-02-28T06:54:22.119Z,90.16
2019-02-28T06:55:23.141Z,90.93
2019-02-28T06:56:23.127Z,90.83
2019-02-28T06:57:22.050Z,90.83
2019-02-28T06:58:22.070Z,91.03
2019-02-28T06:59:23.051Z,91.24
2019-02-28T07:00:22.012Z,91.24
2019-02-28T07:01:22.905Z,91.94
2019-02-28T07:02:22.002Z,91.52
2019-02-28T07:03:21.978Z,91.52
2019-02-28T07:04:22.075Z,91.31
2019-02-28T07:05:25.805Z,90.47
2019-02-28T07:06:21.963Z,90.16
2019-02-28T07:07:21.935Z,90.05
2019-02-28T07:08:24.887Z,90.05
2019-02-28T07:09:21.925Z,90.16
2019-02-28T07:10:22.994Z,90.36
2019-02-28T07:11:21.903Z,90.47
2019-02-28T07:12:21.966Z,91.09
2019-02-28T07:13:21.857Z,91.41
2019-02-28T07:14:21.977Z,91.31
2019-02-28T07:15:24.854Z,91.20
2019-02-28T07:16:23.898Z,91.20
2019-02-28T07:17:21.828Z,91.62
2019-02-28T07:18:21.890Z,92.04
2019-02-28T07:19:21.817Z,91.52
2019-02-28T07:20:21.811Z,91.31
2019-02-28T07:21:21.779Z,91.41
2019-02-28T07:22:21.861Z,91.20
2019-02-28T07:23:22.288Z,90.89
2019-02-28T07:24:21.765Z,90.89
2019-02-28T07:25:21.731Z,90.78
2019-02-28T07:26:21.732Z,91.37
2019-02-28T07:27:23.354Z,91.27
2019-02-28T07:28:22.793Z,91.47
2019-02-28T07:29:21.778Z,91.16
2019-02-28T07:30:21.683Z,91.16
2019-02-28T07:31:24.717Z,91.27
2019-02-28T07:32:21.654Z,91.27
2019-02-28T07:33:21.705Z,91.22
2019-02-28T07:34:23.820Z,91.37
2019-02-28T07:35:21.735Z,91.02
2019-02-28T07:36:21.606Z,91.33
2019-02-28T07:37:21.675Z,91.43
2019-02-28T07:38:21.577Z,90.91
2019-02-28T07:39:21.647Z,90.28
2019-02-28T07:40:21.567Z,90.14
2019-02-28T07:41:26.483Z,90.28
2019-02-28T07:42:22.547Z,90.34
2019-02-28T07:43:21.578Z,90.45
2019-02-28T07:44:22.396Z,89.26
2019-02-28T07:45:21.508Z,89.36
2019-02-28T07:46:21.509Z,89.32
2019-02-28T07:47:21.559Z,88.65
2019-02-28T07:48:26.502Z,88.34
2019-02-28T07:49:22.490Z,87.37
2019-02-28T07:50:21.562Z,86.49
2019-02-28T07:51:22.608Z,86.80
2019-02-28T07:52:21.503Z,85.41
2019-02-28T07:53:21.428Z,85.61
2019-02-28T07:54:23.542Z,85.99
2019-02-28T07:55:21.418Z,85.36
2019-02-28T07:56:23.812Z,85.16
2019-02-28T07:57:22.462Z,84.81
2019-02-28T07:58:21.374Z,84.14
2019-02-28T07:59:21.414Z,83.31
2019-02-28T08:00:21.354Z,82.03
2019-02-28T08:01:24.467Z,80.84
2019-02-28T08:02:24.346Z,80.04
2019-02-28T08:03:21.308Z,77.86
2019-02-28T08:04:21.458Z,78.23
2019-02-28T08:05:21.334Z,78.34
2019-02-28T08:06:21.347Z,77.20
2019-02-28T08:07:21.268Z,76.99
2019-02-28T08:08:23.424Z,77.40
2019-02-28T08:09:22.278Z,77.51
2019-02-28T08:10:21.318Z,78.23
2019-02-28T08:11:21.223Z,77.82
2019-02-28T08:12:21.216Z,77.47
2019-02-28T08:13:21.200Z,77.16
2019-02-28T08:14:21.292Z,77.89
2019-02-28T08:15:22.567Z,77.47
2019-02-28T08:16:22.250Z,77.89
2019-02-28T08:17:21.153Z,77.85
2019-02-28T08:18:21.261Z,78.58
2019-02-28T08:19:22.975Z,77.51
2019-02-28T08:20:21.246Z,76.61
2019-02-28T08:21:21.105Z,74.84
2019-02-28T08:22:24.265Z,74.84
2019-02-28T08:23:21.084Z,76.92
2019-02-28T08:24:21.164Z,77.92
2019-02-28T08:25:21.084Z,76.12
2019-02-28T08:26:21.095Z,78.92
2019-02-28T08:27:21.052Z,77.50
2019-02-28T08:28:21.046Z,73.91
2019-02-28T08:29:21.115Z,72.74
2019-02-28T08:30:21.027Z,71.64
2019-02-28T08:31:22.070Z,69.14
2019-02-28T08:32:20.998Z,68.25
2019-02-28T08:33:20.988Z,68.87
2019-02-28T08:34:23.867Z,68.32
2019-02-28T08:35:21.069Z,66.31
2019-02-28T08:36:20.949Z,64.29
2019-02-28T08:37:22.411Z,64.70
2019-02-28T08:38:20.929Z,64.01
2019-02-28T08:39:20.921Z,63.65
2019-02-28T08:40:20.914Z,63.93
2019-02-28T08:41:22.495Z,62.98
2019-02-28T08:42:20.891Z,61.82
2019-02-28T08:43:27.107Z,62.43
2019-02-28T08:44:23.786Z,60.56
2019-02-28T08:45:20.933Z,59.17
2019-02-28T08:46:20.833Z,59.22
2019-02-28T08:47:21.822Z,58.48
2019-02-28T08:48:20.814Z,56.92
2019-02-28T08:49:20.794Z,58.34
2019-02-28T08:50:23.430Z,56.38
2019-02-28T08:51:22.862Z,55.79
2019-02-28T08:52:20.765Z,55.56
2019-02-28T08:53:20.837Z,53.39
2019-02-28T08:54:26.297Z,52.53
2019-02-28T08:55:28.322Z,52.56
2019-02-28T08:56:22.802Z,50.50
2019-02-28T08:57:22.039Z,49.62
2019-02-28T08:58:20.783Z,49.06
2019-02-28T08:59:22.683Z,47.79
2019-02-28T09:00:20.759Z,47.95
2019-02-28T09:01:20.669Z,47.02
2019-02-28T09:02:20.769Z,47.31
2019-02-28T09:03:20.641Z,46.89
2019-02-28T09:04:20.704Z,46.79
2019-02-28T09:05:25.641Z,46.24
2019-02-28T09:06:21.641Z,45.99
2019-02-28T09:07:20.602Z,45.73
2019-02-28T09:08:22.444Z,47.09
2019-02-28T09:09:20.582Z,47.70
2019-02-28T09:10:20.583Z,47.42
2019-02-28T09:11:21.114Z,47.02
2019-02-28T09:12:20.554Z,46.79
2019-02-28T09:13:20.544Z,46.83
2019-02-28T09:14:20.514Z,47.50
2019-02-28T09:15:20.525Z,46.64
2019-02-28T09:16:20.496Z,45.39
2019-02-28T09:17:20.566Z,45.34
2019-02-28T09:18:20.486Z,43.80
2019-02-28T09:19:20.507Z,43.38
2019-02-28T09:20:20.486Z,42.74
2019-02-28T09:21:20.557Z,41.75
2019-02-28T09:22:20.428Z,43.51
2019-02-28T09:23:23.534Z,44.11
2019-02-28T09:24:20.398Z,43.69
2019-02-28T09:25:22.047Z,42.55
2019-02-28T09:26:20.379Z,42.27
2019-02-28T09:27:20.450Z,43.00
2019-02-28T09:28:20.914Z,43.79
2019-02-28T09:29:21.322Z,42.32
2019-02-28T09:30:20.351Z,42.40
2019-02-28T09:31:20.322Z,42.96
2019-02-28T09:32:20.392Z,42.86
2019-02-28T09:33:23.341Z,43.04
2019-02-28T09:34:20.323Z,43.42
2019-02-28T09:35:20.735Z,43.10
2019-02-28T09:36:21.525Z,42.40
2019-02-28T09:37:20.265Z,41.17
2019-02-28T09:38:20.298Z,40.78
2019-02-28T09:39:20.343Z,42.10
2019-02-28T09:40:20.276Z,43.24
2019-02-28T09:41:20.206Z,41.53
2019-02-28T09:42:20.269Z,43.63
2019-02-28T09:43:20.198Z,46.12
2019-02-28T09:44:20.188Z,47.27
2019-02-28T09:45:20.172Z,49.06
2019-02-28T09:46:20.238Z,49.62
2019-02-28T09:47:20.148Z,49.64
2019-02-28T09:48:20.169Z,51.62
2019-02-28T09:49:20.120Z,51.62
2019-02-28T09:50:22.569Z,52.43
2019-02-28T09:51:20.101Z,53.47
2019-02-28T09:52:20.091Z,53.17
2019-02-28T09:53:20.103Z,52.78
2019-02-28T09:54:21.449Z,53.29
2019-02-28T09:55:20.069Z,54.11
2019-02-28T09:56:20.113Z,53.90
2019-02-28T09:57:20.033Z,53.90
2019-02-28T09:58:20.026Z,53.42
2019-02-28T09:59:20.014Z,54.00
2019-02-28T10:00:20.023Z,53.72
2019-02-28T10:01:21.254Z,54.31
2019-02-28T10:02:19.986Z,53.50
2019-02-28T10:03:19.976Z,53.19
2019-02-28T10:04:19.957Z,53.19
2019-02-28T10:05:19.977Z,54.31
2019-02-28T10:06:19.928Z,53.90
2019-02-28T10:07:19.968Z,53.67
2019-02-28T10:08:21.734Z,53.29
2019-02-28T10:09:20.009Z,52.08
2019-02-28T10:10:21.021Z,51.77
2019-02-28T10:11:21.745Z,52.76
2019-02-28T10:12:19.862Z,52.89
2019-02-28T10:13:19.891Z,53.29
2019-02-28T10:14:19.953Z,53.59
2019-02-28T10:15:19.846Z,53.29
2019-02-28T10:16:19.942Z,53.90
2019-02-28T10:17:19.793Z,53.19
2019-02-28T10:18:20.843Z,53.90
2019-02-28T10:19:19.812Z,54.00
2019-02-28T10:20:19.854Z,53.90
2019-02-28T10:21:19.756Z,53.90
2019-02-28T10:22:19.786Z,54.11
2019-02-28T10:23:21.488Z,52.17
2019-02-28T10:24:19.826Z,51.97
2019-02-28T10:25:19.718Z,53.90
2019-02-28T10:26:19.807Z,53.06
2019-02-28T10:27:19.696Z,53.50
2019-02-28T10:28:19.703Z,53.27
2019-02-28T10:29:19.670Z,52.66
2019-02-28T10:30:30.715Z,53.27
2019-02-28T10:31:22.870Z,52.05
2019-02-28T10:32:20.630Z,52.03
2019-02-28T10:33:19.740Z,52.23
2019-02-28T10:34:19.613Z,52.66
2019-02-28T10:35:19.672Z,51.72
2019-02-28T10:36:19.607Z,50.90
2019-02-28T10:37:22.825Z,50.81
2019-02-28T10:38:19.558Z,50.40
2019-02-28T10:39:21.584Z,49.79
2019-02-28T10:40:19.544Z,51.09
2019-02-28T10:41:19.536Z,51.59
2019-02-28T10:42:19.535Z,51.21
2019-02-28T10:43:19.616Z,51.18
2019-02-28T10:44:19.496Z,52.03
2019-02-28T10:45:19.546Z,50.81
2019-02-28T10:46:20.291Z,51.11
2019-02-28T10:47:19.478Z,50.90
2019-02-28T10:48:19.448Z,49.08
2019-02-28T10:49:21.123Z,50.60
2019-02-28T10:50:19.429Z,50.68
2019-02-28T10:51:19.499Z,49.69
2019-02-28T10:52:19.429Z,50.88
2019-02-28T10:53:19.400Z,50.58
2019-02-28T10:54:19.471Z,50.58
2019-02-28T10:55:22.351Z,50.78
2019-02-28T10:56:20.462Z,51.70
2019-02-28T10:57:19.363Z,51.39
2019-02-28T10:58:19.344Z,51.29
2019-02-28T10:59:21.376Z,50.78
2019-02-28T11:00:20.216Z,51.70
2019-02-28T11:01:19.409Z,52.20
2019-02-28T11:02:19.968Z,52.51
2019-02-28T11:03:19.265Z,52.10
2019-02-28T11:04:19.346Z,52.10
2019-02-28T11:05:19.603Z,51.70
2019-02-28T11:06:19.334Z,51.70
2019-02-28T11:07:19.237Z,52.30
2019-02-28T11:08:19.421Z,51.90
2019-02-28T11:09:21.709Z,51.90
2019-02-28T11:10:20.212Z,51.59
2019-02-28T11:11:19.272Z,51.79
2019-02-28T11:12:20.414Z,52.71
2019-02-28T11:13:19.170Z,52.40
2019-02-28T11:14:19.162Z,50.37
2019-02-28T11:15:20.220Z,51.29
2019-02-28T11:16:20.485Z,50.98
2019-02-28T11:17:19.232Z,52.51
2019-02-28T11:18:19.120Z,51.39
2019-02-28T11:19:19.574Z,50.58
2019-02-28T11:20:22.440Z,52.00
2019-02-28T11:21:19.143Z,49.46
2019-02-28T11:22:19.075Z,49.64
2019-02-28T11:23:19.145Z,49.54
2019-02-28T11:24:20.554Z,49.54
2019-02-28T11:25:19.026Z,49.33
2019-02-28T11:26:19.086Z,50.76
2019-02-28T11:27:20.905Z,49.74
2019-02-28T11:28:19.077Z,50.73
2019-02-28T11:29:18.989Z,49.52
2019-02-28T11:30:18.956Z,49.41
2019-02-28T11:31:19.187Z,49.01
2019-02-28T11:32:19.049Z,48.91
2019-02-28T11:33:18.940Z,49.49
2019-02-28T11:34:20.011Z,49.62
2019-02-28T11:35:20.073Z,49.08
2019-02-28T11:36:18.963Z,48.91
2019-02-28T11:37:18.893Z,48.38
2019-02-28T11:38:21.519Z,48.38
2019-02-28T11:39:18.863Z,50.10
2019-02-28T11:40:18.852Z,48.48
2019-02-28T11:41:19.668Z,49.19
2019-02-28T11:42:19.855Z,49.52
2019-02-28T11:43:18.829Z,49.90
2019-02-28T11:44:18.866Z,48.68
2019-02-28T11:45:21.917Z,49.72
2019-02-28T11:46:19.809Z,49.69
2019-02-28T11:47:18.868Z,49.11
2019-02-28T11:48:20.276Z,49.21
2019-02-28T11:49:18.808Z,48.93
2019-02-28T11:50:18.748Z,49.74
2019-02-28T11:51:18.749Z,49.92
2019-02-28T11:52:18.810Z,49.44
2019-02-28T11:53:19.233Z,49.03
2019-02-28T11:54:18.742Z,49.01
2019-02-28T11:55:20.302Z,49.54
2019-02-28T11:56:18.694Z,48.91
2019-02-28T11:57:20.537Z,49.72
2019-02-28T11:58:18.743Z,49.11
2019-02-28T11:59:18.644Z,49.72
2019-02-28T12:00:18.654Z,49.92
2019-02-28T12:01:18.635Z,48.71
2019-02-28T12:02:20.149Z,49.03
2019-02-28T12:03:18.659Z,49.64
2019-02-28T12:04:18.606Z,49.44
2019-02-28T12:05:18.600Z,51.44
2019-02-28T12:06:18.569Z,50.86
2019-02-28T12:07:18.549Z,50.12
2019-02-28T12:08:18.537Z,49.44
2019-02-28T12:09:19.270Z,50.63
2019-02-28T12:10:18.530Z,49.44
2019-02-28T12:11:18.562Z,49.44
2019-02-28T12:12:18.510Z,49.72
2019-02-28T12:13:19.675Z,49.54
2019-02-28T12:14:18.481Z,49.54
2019-02-28T12:15:18.583Z,49.95
2019-02-28T12:16:19.323Z,49.54
2019-02-28T12:17:18.512Z,49.03
2019-02-28T12:18:18.433Z,49.44
2019-02-28T12:19:19.478Z,50.45
2019-02-28T12:20:18.415Z,49.62
2019-02-28T12:21:18.485Z,50.33
2019-02-28T12:22:18.415Z,50.12
2019-02-28T12:23:22.902Z,49.21
2019-02-28T12:24:19.366Z,49.11
2019-02-28T12:25:18.457Z,50.63
2019-02-28T12:26:18.826Z,50.63
2019-02-28T12:27:18.449Z,49.19
2019-02-28T12:28:18.329Z,49.80
2019-02-28T12:29:18.359Z,48.78
2019-02-28T12:30:18.857Z,48.88
2019-02-28T12:31:18.281Z,48.15
2019-02-28T12:32:18.370Z,49.16
2019-02-28T12:33:18.981Z,48.76
2019-02-28T12:34:18.252Z,48.86
2019-02-28T12:35:18.242Z,48.48
2019-02-28T12:36:18.313Z,48.48
2019-02-28T12:37:18.226Z,48.78
2019-02-28T12:38:19.273Z,48.68
2019-02-28T12:39:19.234Z,48.78
2019-02-28T12:40:18.186Z,48.76
2019-02-28T12:41:18.244Z,48.66
2019-02-28T12:42:18.172Z,48.86
2019-02-28T12:43:19.218Z,49.47
2019-02-28T12:44:18.136Z,48.76
2019-02-28T12:45:18.217Z,48.55
2019-02-28T12:46:18.118Z,47.75
2019-02-28T12:47:18.130Z,48.05
2019-02-28T12:48:18.078Z,48.96
2019-02-28T12:49:21.879Z,48.33
2019-02-28T12:50:18.059Z,49.06
2019-02-28T12:51:18.130Z,48.76
2019-02-28T12:52:18.050Z,49.57